Time;durP1;ratioP1;P1;durP2;ratioP2;P2;SDS_P1;SDS_P2;PMS_P1;PMS_P2;Temp;Humidity;BMP_temperature;BMP_pressure;BME280_temperature;BME280_humidity;BME280_pressure;Samples;Min_cycle;Max_cycle;Signal;HPM_P1;HPM_P2
2022/06/22 00:00:59;;;;;;;0.22;0.20;;;8.60;99.90;;;;;;5091747;28;20048;-75
2022/06/22 00:03:25;;;;;;;0.00;0.00;;;8.50;99.90;;;;;;5092303;28;20119;-75
2022/06/22 00:05:52;;;;;;;0.05;0.05;;;8.50;99.90;;;;;;5092334;28;20135;-75
2022/06/22 00:08:39;;;;;;;1.40;0.52;;;8.40;99.90;;;;;;5092360;28;20056;-75
2022/06/22 00:11:14;;;;;;;0.00;0.00;;;8.40;99.90;;;;;;5086873;28;20055;-75
2022/06/22 00:13:47;;;;;;;1.55;1.02;;;8.30;99.90;;;;;;5072263;28;20131;-75
2022/06/22 00:16:39;;;;;;;0.52;0.50;;;8.30;99.90;;;;;;5074963;28;20055;-74
2022/06/22 00:19:27;;;;;;;1.02;0.52;;;8.20;99.90;;;;;;5071401;28;20052;-74
2022/06/22 00:21:53;;;;;;;0.00;0.00;;;8.20;99.90;;;;;;5090740;28;20051;-75
2022/06/22 00:24:24;;;;;;;0.28;0.22;;;8.20;99.90;;;;;;5095833;28;20036;-75
2022/06/22 00:27:12;;;;;;;1.02;0.30;;;8.10;99.90;;;;;;5096163;28;20044;-75
2022/06/22 00:29:38;;;;;;;0.03;0.03;;;8.00;99.90;;;;;;5095711;28;20044;-75
2022/06/22 00:32:25;;;;;;;0.65;0.15;;;8.00;99.90;;;;;;5079269;28;20040;-75
2022/06/22 00:34:51;;;;;;;0.45;0.43;;;8.00;99.90;;;;;;5095632;28;20048;-75
2022/06/22 00:37:21;;;;;;;0.00;0.00;;;8.00;99.90;;;;;;5095910;28;20047;-75
2022/06/22 00:39:50;;;;;;;0.88;0.57;;;8.30;99.90;;;;;;5094570;28;20051;-75
2022/06/22 00:42:41;;;;;;;0.00;0.00;;;7.90;99.90;;;;;;5075304;28;20080;-74
2022/06/22 00:45:13;;;;;;;0.00;0.00;;;7.90;99.90;;;;;;5061348;28;20063;-75
2022/06/22 00:47:45;;;;;;;0.00;0.00;;;7.80;99.90;;;;;;5075345;28;20052;-75
2022/06/22 00:50:21;;;;;;;0.00;0.00;;;7.80;99.90;;;;;;5076542;28;20402;-74
2022/06/22 00:53:06;;;;;;;0.00;0.00;;;7.60;99.90;;;;;;5095603;28;20047;-75
2022/06/22 00:55:42;;;;;;;0.38;0.32;;;7.60;99.90;;;;;;5095399;28;20436;-74
2022/06/22 00:58:08;;;;;;;0.00;0.00;;;7.70;99.90;;;;;;5095688;28;20105;-75
2022/06/22 01:00:37;;;;;;;0.00;0.00;;;7.60;99.90;;;;;;5088330;28;20390;-74
2022/06/22 01:03:18;;;;;;;0.43;0.43;;;7.50;99.90;;;;;;5074960;28;20047;-74
2022/06/22 01:06:00;;;;;;;0.60;0.60;;;7.50;99.90;;;;;;5074770;28;20201;-74
2022/06/22 01:08:33;;;;;;;0.10;0.10;;;7.60;99.90;;;;;;5075197;28;20048;-75
2022/06/22 01:12:16;;;;;;;0.00;0.00;;;7.50;99.90;;;;;;5074600;28;20036;-75
2022/06/22 01:14:02;;;;;;;0.00;0.00;;;7.40;99.90;;;;;;5074447;28;20048;-75
2022/06/22 01:16:34;;;;;;;0.00;0.00;;;7.30;99.90;;;;;;5074924;28;20049;-75
2022/06/22 01:19:28;;;;;;;0.00;0.00;;;7.30;99.90;;;;;;5076182;28;20455;-74
2022/06/22 01:22:35;;;;;;;0.00;0.00;;;7.20;99.90;;;;;;5091035;28;20052;-75
2022/06/22 01:25:28;;;;;;;0.10;0.10;;;7.10;99.90;;;;;;5039117;28;20086;-76
2022/06/22 01:27:54;;;;;;;0.57;0.38;;;7.10;99.90;;;;;;5094723;28;20072;-75
2022/06/22 01:30:22;;;;;;;0.00;0.00;;;7.10;99.90;;;;;;5086314;28;20078;-75
2022/06/22 01:32:48;;;;;;;0.45;0.40;;;7.10;99.90;;;;;;5074376;28;20044;-74
2022/06/22 01:35:31;;;;;;;0.00;0.00;;;7.20;99.90;;;;;;5074155;28;20067;-74
2022/06/22 01:37:57;;;;;;;0.20;0.20;;;6.90;99.90;;;;;;5074570;28;20044;-74
2022/06/22 01:40:32;;;;;;;0.00;0.00;;;6.90;99.90;;;;;;5082381;28;20071;-74
2022/06/22 01:43:04;;;;;;;0.08;0.05;;;6.90;99.90;;;;;;5094051;28;20486;-74
2022/06/22 01:45:46;;;;;;;1.02;0.60;;;7.00;99.90;;;;;;5094226;28;20050;-74
2022/06/22 01:48:34;;;;;;;0.88;0.43;;;6.90;99.90;;;;;;5093956;28;20383;-75
2022/06/22 01:51:13;;;;;;;0.10;0.10;;;6.90;99.90;;;;;;5081189;28;20502;-74
2022/06/22 01:53:55;;;;;;;0.00;0.00;;;6.90;99.90;;;;;;5056229;28;20052;-74
2022/06/22 01:56:41;;;;;;;0.00;0.00;;;6.80;99.90;;;;;;5114911;22;20262;-72
2022/06/22 01:59:18;;;;;;;0.00;0.00;;;6.70;99.90;;;;;;5101319;28;20460;-76
2022/06/22 02:02:02;;;;;;;0.00;0.00;;;6.70;99.90;;;;;;5113393;28;20075;-73
2022/06/22 02:04:47;;;;;;;0.20;0.20;;;6.60;99.90;;;;;;5112971;28;20466;-73
2022/06/22 02:10:25;;;;;;;;;;;6.50;99.90;;;;;;5100670;28;20044;-73
2022/06/22 02:13:31;;;;;;;0.10;0.10;;;6.60;99.90;;;;;;5114263;28;19942;-72
2022/06/22 02:16:12;;;;;;;0.00;0.00;;;6.60;99.90;;;;;;5094830;28;20044;-72
2022/06/22 02:18:47;;;;;;;9.75;1.08;;;6.60;99.90;;;;;;5095321;28;20627;-74
2022/06/22 02:21:39;;;;;;;0.00;0.00;;;6.60;99.90;;;;;;5114281;28;20485;-72
2022/06/22 02:24:17;;;;;;;0.00;0.00;;;6.60;99.90;;;;;;5114205;28;20826;-74
2022/06/22 02:26:57;;;;;;;0.10;0.08;;;6.50;99.90;;;;;;5116432;28;20047;-73
2022/06/22 02:29:33;;;;;;;0.32;0.32;;;6.50;99.90;;;;;;5115902;28;20043;-73
2022/06/22 02:32:02;;;;;;;0.00;0.00;;;6.40;99.90;;;;;;5115873;28;20080;-72
2022/06/22 02:34:31;;;;;;;0.45;0.45;;;6.30;99.90;;;;;;5115192;28;20040;-73
2022/06/22 02:37:00;;;;;;;0.00;0.00;;;6.30;99.90;;;;;;5114704;28;20047;-73
2022/06/22 02:39:29;;;;;;;0.10;0.10;;;6.30;99.90;;;;;;5114398;28;20039;-72
2022/06/22 02:44:42;;;;;;;0.20;0.20;;;6.20;99.90;;;;;;5113983;28;20489;-73
2022/06/22 02:47:22;;;;;;;0.65;0.65;;;6.40;99.90;;;;;;5115025;28;20071;-73
2022/06/22 02:49:55;;;;;;;2.05;0.38;;;6.20;99.90;;;;;;5115102;28;20043;-74
2022/06/22 02:52:26;;;;;;;0.10;0.10;;;6.30;99.90;;;;;;5115532;28;20044;-73
2022/06/22 02:54:55;;;;;;;0.40;0.40;;;6.90;99.90;;;;;;5114594;28;20119;-72
2022/06/22 02:57:30;;;;;;;0.03;0.03;;;6.30;99.90;;;;;;5100469;28;20048;-73
2022/06/22 02:59:56;;;;;;;0.00;0.00;;;6.30;99.90;;;;;;5095095;28;20098;-74
2022/06/22 03:02:24;;;;;;;0.00;0.00;;;6.20;99.90;;;;;;5097278;28;20051;-72
2022/06/22 03:04:51;;;;;;;0.00;0.00;;;6.20;99.90;;;;;;5102800;28;20110;-74
2022/06/22 03:07:18;;;;;;;0.85;0.20;;;6.10;99.90;;;;;;5088951;28;20079;-72
2022/06/22 03:09:46;;;;;;;0.20;0.20;;;6.10;99.90;;;;;;5092394;28;20050;-74
2022/06/22 03:12:14;;;;;;;0.10;0.10;;;6.20;99.90;;;;;;5108771;28;20043;-73
2022/06/22 03:14:56;;;;;;;0.13;0.13;;;6.20;99.90;;;;;;5107649;28;20040;-74
2022/06/22 03:17:30;;;;;;;0.50;0.40;;;6.30;99.90;;;;;;5109730;28;20099;-73
2022/06/22 03:20:00;;;;;;;0.08;0.08;;;6.20;99.90;;;;;;5107945;28;20048;-73
2022/06/22 03:22:37;;;;;;;0.08;0.08;;;6.20;99.90;;;;;;5106571;28;20028;-73
2022/06/22 03:25:15;;;;;;;0.82;0.65;;;6.20;99.90;;;;;;5096427;28;20127;-72
2022/06/22 03:27:45;;;;;;;0.20;0.20;;;6.20;99.90;;;;;;5094786;28;20108;-72
2022/06/22 03:30:21;;;;;;;0.50;0.50;;;6.20;99.90;;;;;;5093905;28;20088;-72
2022/06/22 03:32:51;;;;;;;0.08;0.08;;;6.20;99.90;;;;;;5093984;28;20055;-73
2022/06/22 03:35:55;;;;;;;0.43;0.43;;;6.20;99.90;;;;;;5093905;28;20055;-72
2022/06/22 03:38:27;;;;;;;0.40;0.30;;;6.30;99.90;;;;;;5076972;28;20138;-72
2022/06/22 03:40:58;;;;;;;0.43;0.40;;;6.30;99.90;;;;;;5093546;28;20062;-73
2022/06/22 03:43:38;;;;;;;0.05;0.05;;;6.40;99.90;;;;;;5093277;28;20085;-72
2022/06/22 03:46:19;;;;;;;0.43;0.30;;;6.30;99.90;;;;;;5093216;28;20044;-73
2022/06/22 03:48:58;;;;;;;0.45;0.45;;;6.30;99.90;;;;;;5093376;28;20478;-74
2022/06/22 03:51:49;;;;;;;0.15;0.15;;;6.20;99.90;;;;;;5076619;28;20071;-72
2022/06/22 03:54:33;;;;;;;0.05;0.05;;;6.20;99.90;;;;;;5066013;28;20078;-73
2022/06/22 03:57:03;;;;;;;0.00;0.00;;;6.30;99.90;;;;;;5097486;28;20048;-73
2022/06/22 03:59:31;;;;;;;0.55;0.55;;;6.30;99.90;;;;;;5097396;28;20032;-72
2022/06/22 04:01:58;;;;;;;0.68;0.60;;;6.70;99.90;;;;;;5095824;28;20128;-73
2022/06/22 04:04:24;;;;;;;0.43;0.43;;;7.00;99.90;;;;;;5097138;28;20047;-73
2022/06/22 04:06:54;;;;;;;0.10;0.10;;;7.00;99.90;;;;;;5097312;28;20036;-74
2022/06/22 04:09:25;;;;;;;0.22;0.22;;;7.00;99.90;;;;;;5096057;28;20082;-73
2022/06/22 04:12:06;;;;;;;0.00;0.00;;;7.00;99.90;;;;;;5097359;28;20112;-73
2022/06/22 04:14:51;;;;;;;0.20;0.20;;;7.00;99.90;;;;;;5097074;28;20097;-72
2022/06/22 04:17:42;;;;;;;0.08;0.08;;;7.00;99.90;;;;;;5097424;28;20044;-73
2022/06/22 04:20:17;;;;;;;1.17;0.95;;;7.00;99.90;;;;;;5082326;28;20062;-73
2022/06/22 04:22:46;;;;;;;0.00;0.00;;;7.10;99.90;;;;;;5095744;28;20087;-73
2022/06/22 04:25:25;;;;;;;0.00;0.00;;;7.20;99.90;;;;;;5097436;28;20072;-74
2022/06/22 04:27:52;;;;;;;0.00;0.00;;;7.40;99.90;;;;;;5096890;28;20040;-74
2022/06/22 04:30:40;;;;;;;0.00;0.00;;;7.50;99.90;;;;;;5096839;28;20043;-73
2022/06/22 04:33:15;;;;;;;0.00;0.00;;;7.80;99.90;;;;;;5095981;28;20055;-73
2022/06/22 04:35:43;;;;;;;0.50;0.50;;;8.40;99.90;;;;;;5092992;28;20097;-74
2022/06/22 04:38:32;;;;;;;0.00;0.00;;;8.50;99.90;;;;;;5081766;28;20048;-72
2022/06/22 04:41:24;;;;;;;0.00;0.00;;;8.70;99.90;;;;;;5086715;28;20091;-71
2022/06/22 04:43:51;;;;;;;0.10;0.10;;;8.90;99.90;;;;;;5085804;28;20036;-74
2022/06/22 04:46:30;;;;;;;0.85;0.85;;;9.10;99.90;;;;;;5069795;28;20082;-72
2022/06/22 04:49:01;;;;;;;1.15;0.75;;;9.40;99.90;;;;;;5089123;28;20556;-71
2022/06/22 04:51:33;;;;;;;0.20;0.20;;;9.70;99.90;;;;;;5081759;28;20048;-73
2022/06/22 04:54:19;;;;;;;0.28;0.28;;;10.30;99.90;;;;;;5076075;28;20060;-72
2022/06/22 04:56:48;;;;;;;0.13;0.13;;;11.30;99.90;;;;;;5085280;28;20078;-73
2022/06/22 04:59:16;;;;;;;3.67;0.50;;;12.00;99.90;;;;;;5095931;28;20107;-74
2022/06/22 05:01:46;;;;;;;0.98;0.90;;;12.40;99.90;;;;;;5095381;28;20040;-73
2022/06/22 05:04:23;;;;;;;1.80;1.30;;;12.80;99.90;;;;;;5096647;28;20044;-73
2022/06/22 05:07:00;;;;;;;0.70;0.40;;;13.30;99.90;;;;;;5096220;28;20047;-73
2022/06/22 05:09:32;;;;;;;0.45;0.40;;;14.00;99.90;;;;;;5096120;28;20046;-73
2022/06/22 05:12:00;;;;;;;0.10;0.10;;;14.50;99.90;;;;;;5096327;28;20135;-73
2022/06/22 05:14:29;;;;;;;0.15;0.10;;;15.20;99.90;;;;;;5096201;28;20040;-73
2022/06/22 05:17:02;;;;;;;0.75;0.55;;;16.00;99.90;;;;;;5096576;28;20052;-73
2022/06/22 05:19:48;;;;;;;0.90;0.60;;;15.90;99.90;;;;;;5095085;28;20043;-72
2022/06/22 05:22:15;;;;;;;0.65;0.47;;;16.30;99.90;;;;;;5094705;28;20051;-72
2022/06/22 05:24:45;;;;;;;0.30;0.20;;;16.90;99.90;;;;;;5093679;28;20085;-74
2022/06/22 05:27:18;;;;;;;0.15;0.15;;;17.20;99.90;;;;;;5093322;28;20082;-73
2022/06/22 05:29:50;;;;;;;0.25;0.25;;;17.60;99.90;;;;;;5092470;28;20354;-73
2022/06/22 05:32:20;;;;;;;0.82;0.40;;;17.50;99.90;;;;;;5093009;28;20055;-74
2022/06/22 05:34:50;;;;;;;0.13;0.13;;;17.50;99.90;;;;;;5093828;28;20082;-73
2022/06/22 05:37:25;;;;;;;0.30;0.30;;;18.10;99.90;;;;;;5095436;28;20501;-72
2022/06/22 05:39:51;;;;;;;;;;;18.50;99.90;;;;;;5095891;28;20044;-74
2022/06/22 05:42:17;;;;;;;0.13;0.10;;;18.90;99.90;;;;;;5095537;28;19927;-72
2022/06/22 05:44:43;;;;;;;0.20;0.20;;;19.40;99.90;;;;;;5095397;28;20497;-74
2022/06/22 05:47:17;;;;;;;0.35;0.32;;;19.70;99.90;;;;;;5095137;28;20655;-73
2022/06/22 05:49:54;;;;;;;0.57;0.50;;;20.00;99.90;;;;;;5094764;28;20470;-73
2022/06/22 05:52:28;;;;;;;0.93;0.63;;;20.40;99.90;;;;;;5095304;28;20036;-73
2022/06/22 05:55:21;;;;;;;0.73;0.45;;;20.20;99.90;;;;;;5095339;28;20032;-72
2022/06/22 05:57:58;;;;;;;0.45;0.35;;;20.90;99.90;;;;;;5095001;28;20071;-72
2022/06/22 06:00:28;;;;;;;0.80;0.57;;;21.10;99.90;;;;;;5095115;28;20058;-72
2022/06/22 06:03:04;;;;;;;0.32;0.10;;;21.30;95.10;;;;;;5095399;28;20409;-73
2022/06/22 06:05:38;;;;;;;0.17;0.17;;;21.10;98.70;;;;;;5094794;28;20048;-73
2022/06/22 06:08:10;;;;;;;0.52;0.32;;;21.20;96.50;;;;;;5095727;28;20048;-73
2022/06/22 06:10:40;;;;;;;0.20;0.20;;;21.30;91.90;;;;;;5095419;28;20052;-72
2022/06/22 06:13:30;;;;;;;1.55;0.75;;;21.20;92.20;;;;;;5094736;28;20494;-73
2022/06/22 06:15:59;;;;;;;0.60;0.60;;;21.00;90.80;;;;;;5094726;28;20533;-73
2022/06/22 06:18:31;;;;;;;1.52;0.63;;;21.50;92.90;;;;;;5094915;28;20044;-72
2022/06/22 06:21:03;;;;;;;0.20;0.20;;;22.10;77.70;;;;;;5095003;28;20093;-73
2022/06/22 06:23:32;;;;;;;0.40;0.40;;;22.70;65.70;;;;;;5095110;28;20428;-73
2022/06/22 06:29:04;;;;;;;3.72;1.45;;;23.50;40.10;;;;;;5094699;28;20056;-73
2022/06/22 06:31:44;;;;;;;0.22;0.22;;;23.30;51.70;;;;;;5093914;28;20060;-72
2022/06/22 06:34:17;;;;;;;1.40;0.50;;;23.30;38.00;;;;;;5095361;28;20090;-74
2022/06/22 06:36:54;;;;;;;0.57;0.45;;;23.30;35.10;;;;;;5095422;28;20043;-74
2022/06/22 06:39:23;;;;;;;0.43;0.40;;;23.60;36.50;;;;;;5093706;28;20079;-73
2022/06/22 06:42:03;;;;;;;0.20;0.20;;;24.10;33.90;;;;;;5093846;28;20086;-73
2022/06/22 06:44:38;;;;;;;0.20;0.20;;;24.60;23.30;;;;;;5094873;28;20040;-74
2022/06/22 06:47:10;;;;;;;0.85;0.52;;;24.50;17.80;;;;;;5093637;28;20044;-74
2022/06/22 06:49:49;;;;;;;2.88;0.55;;;24.10;17.80;;;;;;5094227;28;20473;-73
2022/06/22 06:52:34;;;;;;;0.45;0.40;;;24.10;10.60;;;;;;5094822;28;20040;-73
2022/06/22 06:55:18;;;;;;;0.47;0.47;;;24.50;9.10;;;;;;5094141;28;20552;-73
2022/06/22 06:58:21;;;;;;;2.60;1.20;;;24.60;3.90;;;;;;5093855;28;20063;-73
2022/06/22 07:00:48;;;;;;;0.68;0.38;;;24.30;4.00;;;;;;5094474;28;20143;-72
2022/06/22 07:03:26;;;;;;;0.08;0.08;;;25.00;1.00;;;;;;5095449;28;20066;-73
2022/06/22 07:05:52;;;;;;;0.55;0.35;;;25.00;1.00;;;;;;5094985;28;20490;-74
2022/06/22 07:08:20;;;;;;;0.63;0.52;;;25.00;1.00;;;;;;5094238;28;20123;-73
2022/06/22 07:10:50;;;;;;;2.88;0.63;;;24.90;1.00;;;;;;5094423;28;20066;-73
2022/06/22 07:13:27;;;;;;;3.22;1.05;;;24.60;1.00;;;;;;5094049;28;20056;-72
2022/06/22 07:15:57;;;;;;;4.03;0.75;;;24.70;1.00;;;;;;5093904;28;20528;-73
2022/06/22 07:18:26;;;;;;;0.43;0.30;;;24.40;3.80;;;;;;5092116;28;20518;-74
2022/06/22 07:21:01;;;;;;;0.82;0.60;;;24.70;2.10;;;;;;5091687;28;20051;-72
2022/06/22 07:23:43;;;;;;;0.70;0.38;;;24.60;1.00;;;;;;5090650;28;20119;-74
2022/06/22 07:26:21;;;;;;;2.05;0.95;;;24.70;2.70;;;;;;5078952;28;20055;-74
2022/06/22 07:29:05;;;;;;;0.20;0.20;;;24.80;1.00;;;;;;5073191;28;20074;-73
2022/06/22 07:31:40;;;;;;;0.60;0.47;;;24.80;3.20;;;;;;5072677;28;20052;-72
2022/06/22 07:34:27;;;;;;;0.50;0.50;;;24.60;1.00;;;;;;5073083;28;20040;-74
2022/06/22 07:36:58;;;;;;;2.35;1.15;;;25.10;1.00;;;;;;5072673;28;20533;-74
2022/06/22 07:39:55;;;;;;;1.85;1.02;;;25.60;1.00;;;;;;5074778;28;20100;-72
2022/06/22 07:42:20;;;;;;;;;;;26.00;1.00;;;;;;5045284;28;20060;-72
2022/06/22 07:44:46;;;;;;;0.20;0.20;;;26.00;1.00;;;;;;5085559;28;19924;-73
2022/06/22 07:47:21;;;;;;;0.47;0.32;;;26.70;1.00;;;;;;5079614;28;20043;-73
2022/06/22 07:50:15;;;;;;;0.08;0.08;;;27.00;1.00;;;;;;5090186;28;20350;-73
2022/06/22 07:52:49;;;;;;;0.38;0.35;;;26.50;1.00;;;;;;5094379;28;20051;-72
2022/06/22 07:55:44;;;;;;;0.35;0.20;;;26.00;1.00;;;;;;5089898;28;20055;-73
2022/06/22 07:58:31;;;;;;;1.35;0.50;;;26.10;1.00;;;;;;5094634;28;20056;-73
2022/06/22 08:01:04;;;;;;;0.35;0.22;;;27.10;1.00;;;;;;5093058;28;20039;-74
2022/06/22 08:03:55;;;;;;;0.35;0.30;;;28.00;1.00;;;;;;5096264;28;20064;-74
2022/06/22 08:06:27;;;;;;;2.53;0.93;;;27.90;1.00;;;;;;5091106;28;20048;-74
2022/06/22 08:09:05;;;;;;;1.00;0.57;;;27.50;1.00;;;;;;5079677;28;20191;-73
2022/06/22 08:11:36;;;;;;;0.80;0.73;;;26.70;1.00;;;;;;5091024;28;20040;-73
2022/06/22 08:14:16;;;;;;;0.60;0.40;;;27.50;1.00;;;;;;5090366;28;20095;-72
2022/06/22 08:16:47;;;;;;;0.32;0.32;;;28.10;1.00;;;;;;5089688;28;20055;-73
2022/06/22 08:19:14;;;;;;;1.35;0.98;;;27.80;1.00;;;;;;5089456;28;20051;-74
2022/06/22 08:21:46;;;;;;;2.03;0.57;;;26.70;1.00;;;;;;5089800;28;20044;-71
2022/06/22 08:24:15;;;;;;;0.40;0.32;;;27.40;1.00;;;;;;5089128;28;20111;-73
2022/06/22 08:26:41;;;;;;;0.60;0.55;;;28.10;1.00;;;;;;5089246;28;20470;-73
2022/06/22 08:29:08;;;;;;;0.10;0.10;;;26.80;1.00;;;;;;5089388;28;20474;-73
2022/06/22 08:31:49;;;;;;;0.20;0.20;;;26.90;1.00;;;;;;5089108;28;20058;-72
2022/06/22 08:34:23;;;;;;;2.95;1.40;;;27.20;1.00;;;;;;5089648;28;20265;-75
2022/06/22 08:36:55;;;;;;;3.35;1.02;;;26.20;1.00;;;;;;5091902;28;20544;-72
2022/06/22 08:39:34;;;;;;;0.00;0.00;;;26.70;1.00;;;;;;5093203;28;20044;-71
2022/06/22 08:42:27;;;;;;;0.98;0.47;;;26.60;1.00;;;;;;5092868;28;20051;-73
2022/06/22 08:45:13;;;;;;;0.25;0.20;;;26.50;1.00;;;;;;5093237;28;20119;-73
2022/06/22 08:47:52;;;;;;;2.92;0.65;;;26.40;1.00;;;;;;5093222;28;20055;-73
2022/06/22 08:50:30;;;;;;;0.40;0.30;;;26.60;1.00;;;;;;5092497;28;20044;-73
2022/06/22 08:53:30;;;;;;;1.40;1.17;;;26.70;1.00;;;;;;5091805;28;20047;-73
2022/06/22 08:56:26;;;;;;;0.38;0.38;;;27.40;1.00;;;;;;5091176;28;20052;-73
2022/06/22 08:59:00;;;;;;;0.20;0.20;;;27.60;1.00;;;;;;5092558;28;20064;-73
2022/06/22 09:01:44;;;;;;;0.20;0.20;;;27.30;1.00;;;;;;5091480;28;20462;-73
2022/06/22 09:04:30;;;;;;;0.05;0.05;;;27.60;1.00;;;;;;5092662;28;20044;-74
2022/06/22 09:07:40;;;;;;;0.20;0.20;;;28.10;1.00;;;;;;5091238;28;20448;-73
2022/06/22 09:10:34;;;;;;;0.85;0.55;;;28.60;1.00;;;;;;5092391;28;20044;-73
2022/06/22 09:13:06;;;;;;;1.05;0.88;;;29.10;1.00;;;;;;5092123;28;20052;-73
2022/06/22 09:15:45;;;;;;;0.60;0.30;;;28.90;1.00;;;;;;5090928;28;20059;-72
2022/06/22 09:18:28;;;;;;;0.47;0.35;;;29.00;1.00;;;;;;5092346;28;20044;-71
2022/06/22 09:21:28;;;;;;;0.20;0.00;;;29.40;1.00;;;;;;5092787;28;20109;-73
2022/06/22 09:24:11;;;;;;;0.20;0.17;;;28.80;1.00;;;;;;5092443;28;20048;-73
2022/06/22 09:26:53;;;;;;;0.35;0.30;;;28.50;1.00;;;;;;5092216;28;20044;-73
2022/06/22 09:29:40;;;;;;;0.30;0.28;;;27.60;1.00;;;;;;5092287;28;20047;-73
2022/06/22 09:32:21;;;;;;;3.17;0.70;;;28.60;1.00;;;;;;5092136;28;20044;-72
2022/06/22 09:35:09;;;;;;;17.55;0.80;;;28.80;1.00;;;;;;5092334;28;20048;-72
2022/06/22 09:38:05;;;;;;;0.40;0.40;;;28.80;1.00;;;;;;5090845;28;20466;-73
2022/06/22 09:40:50;;;;;;;0.00;0.00;;;28.20;1.00;;;;;;5091805;28;20426;-72
2022/06/22 09:43:19;;;;;;;6.35;2.03;;;28.50;1.00;;;;;;5092126;28;20155;-72
2022/06/22 09:46:21;;;;;;;0.22;0.17;;;28.30;1.00;;;;;;5091669;28;20136;-71
2022/06/22 09:49:14;;;;;;;0.30;0.30;;;28.20;1.00;;;;;;5091518;28;20063;-72
2022/06/22 09:51:59;;;;;;;0.00;0.00;;;27.90;1.00;;;;;;5091627;28;20556;-73
2022/06/22 09:58:01;;;;;;;0.05;0.05;;;27.20;1.00;;;;;;5090479;28;20052;-74
2022/06/22 10:00:49;;;;;;;0.52;0.38;;;27.50;1.00;;;;;;5092346;28;20044;-72
2022/06/22 10:03:45;;;;;;;0.52;0.40;;;26.80;1.00;;;;;;5091918;28;20504;-73
2022/06/22 10:06:28;;;;;;;0.82;0.73;;;27.00;1.00;;;;;;5092510;28;20056;-74
2022/06/22 10:09:33;;;;;;;1.25;0.73;;;26.50;1.00;;;;;;5092362;28;20394;-73
2022/06/22 10:12:31;;;;;;;3.85;0.63;;;25.80;1.00;;;;;;5091241;28;20489;-73
2022/06/22 10:15:26;;;;;;;1.15;0.50;;;25.50;1.00;;;;;;5092337;28;20093;-74
2022/06/22 10:18:14;;;;;;;0.22;0.22;;;25.70;1.00;;;;;;5092145;28;20048;-73
2022/06/22 10:21:08;;;;;;;1.20;0.43;;;25.50;1.00;;;;;;5034668;28;20514;-75
2022/06/22 10:23:46;;;;;;;1.20;0.65;;;25.80;1.00;;;;;;5091972;28;20662;-72
2022/06/22 10:26:12;;;;;;;0.17;0.13;;;25.60;1.00;;;;;;5090972;28;20580;-74
2022/06/22 10:28:53;;;;;;;0.93;0.68;;;25.30;1.00;;;;;;5091254;28;20123;-72
2022/06/22 10:31:25;;;;;;;0.25;0.15;;;25.50;1.00;;;;;;5091275;28;20048;-73
2022/06/22 10:34:18;;;;;;;1.55;0.52;;;25.60;1.00;;;;;;5090973;28;20048;-73
2022/06/22 10:37:02;;;;;;;0.17;0.13;;;25.90;1.00;;;;;;5091020;28;20189;-74
2022/06/22 10:45:08;;;;;;;0.60;0.50;;;26.20;1.00;;;;;;5091066;28;20489;-73
2022/06/22 10:46:04;;;;;;;1.48;0.57;;;25.60;1.00;;;;;;5111123;28;20055;-73
2022/06/22 10:48:59;;;;;;;1.38;0.52;;;26.00;1.00;;;;;;5111550;28;20043;-73
2022/06/22 10:51:47;;;;;;;0.17;0.17;;;26.40;1.00;;;;;;5089276;28;20442;-72
2022/06/22 10:55:03;;;;;;;2.30;0.50;;;26.40;1.00;;;;;;5114007;28;20431;-72
2022/06/22 10:57:58;;;;;;;0.47;0.20;;;26.90;1.00;;;;;;5049357;28;20048;-73
2022/06/22 11:00:42;;;;;;;0.73;0.43;;;27.40;1.00;;;;;;5094728;28;20032;-73
2022/06/22 11:03:45;;;;;;;1.08;0.55;;;27.40;1.00;;;;;;5060240;28;20478;-73
2022/06/22 11:06:29;;;;;;;0.20;0.20;;;27.30;1.00;;;;;;5094562;28;20040;-72
2022/06/22 11:09:32;;;;;;;0.40;0.30;;;27.70;1.00;;;;;;5095419;28;20044;-74
2022/06/22 11:12:01;;;;;;;1.50;0.73;;;28.40;1.00;;;;;;5076315;28;20075;-72
2022/06/22 11:14:51;;;;;;;0.52;0.32;;;28.40;1.00;;;;;;5094452;28;20040;-72
2022/06/22 11:17:54;;;;;;;0.77;0.30;;;28.30;1.00;;;;;;5094721;28;20111;-72
2022/06/22 11:20:37;;;;;;;0.03;0.00;;;29.10;1.00;;;;;;5083714;28;20052;-73
2022/06/22 11:23:09;;;;;;;0.30;0.25;;;29.10;1.00;;;;;;5094100;28;20040;-73
2022/06/22 11:32:25;;;;;;;0.22;0.22;;;29.50;1.00;;;;;;5094789;28;20131;-72
2022/06/22 11:35:25;;;;;;;0.15;0.15;;;29.90;1.00;;;;;;5076508;28;20036;-72
2022/06/22 11:38:37;;;;;;;0.85;0.30;;;30.70;1.00;;;;;;5095163;28;20048;-72
2022/06/22 11:41:34;;;;;;;1.65;0.60;;;31.30;1.00;;;;;;5081266;28;20052;-72
2022/06/22 11:44:11;;;;;;;0.75;0.45;;;31.60;1.00;;;;;;5094951;28;20519;-73
2022/06/22 11:46:45;;;;;;;0.85;0.50;;;32.40;1.00;;;;;;5094828;28;20040;-73
2022/06/22 11:49:35;;;;;;;0.52;0.30;;;32.80;1.00;;;;;;5094661;28;20048;-72
2022/06/22 11:52:26;;;;;;;0.80;0.47;;;32.10;1.00;;;;;;5076204;28;20048;-71
2022/06/22 11:55:18;;;;;;;1.50;0.95;;;31.30;1.00;;;;;;5094853;28;20040;-72
2022/06/22 11:58:08;;;;;;;7.47;1.77;;;31.30;1.00;;;;;;5093648;28;20080;-74
2022/06/22 12:00:55;;;;;;;1.15;0.63;;;30.30;1.00;;;;;;5094144;28;20371;-73
2022/06/22 12:03:41;;;;;;;1.35;0.95;;;29.90;1.00;;;;;;5094109;28;20055;-72
2022/06/22 12:06:31;;;;;;;0.90;0.50;;;30.50;1.00;;;;;;5093928;28;20055;-72
2022/06/22 12:09:06;;;;;;;1.75;0.75;;;30.80;1.00;;;;;;5093902;28;20036;-73
2022/06/22 12:11:53;;;;;;;0.00;0.00;;;30.90;1.00;;;;;;5096118;28;20482;-73
2022/06/22 12:17:51;;;;;;;0.82;0.70;;;31.50;1.00;;;;;;5098105;28;20515;-72
2022/06/22 12:20:28;;;;;;;0.08;0.03;;;31.40;1.00;;;;;;5097532;28;20047;-72
2022/06/22 12:23:18;;;;;;;0.45;0.38;;;31.70;1.00;;;;;;5097226;28;20425;-72
2022/06/22 12:26:02;;;;;;;1.35;0.65;;;31.30;1.00;;;;;;5097968;28;20533;-72
2022/06/22 12:28:45;;;;;;;0.55;0.25;;;31.30;1.00;;;;;;5098067;28;20044;-72
2022/06/22 12:31:18;;;;;;;0.73;0.40;;;31.50;1.00;;;;;;5098189;28;20048;-72
2022/06/22 12:34:02;;;;;;;5.00;0.60;;;30.90;1.00;;;;;;5098141;28;20140;-73
2022/06/22 12:36:37;;;;;;;0.15;0.15;;;31.00;1.00;;;;;;5099030;28;20154;-71
2022/06/22 12:39:11;;;;;;;0.15;0.13;;;32.10;1.00;;;;;;5100785;28;20047;-74
2022/06/22 12:42:00;;;;;;;0.10;0.10;;;32.70;1.00;;;;;;5100921;28;20051;-72
2022/06/22 12:45:04;;;;;;;2.85;0.82;;;33.10;1.00;;;;;;5101606;28;20126;-73
2022/06/22 12:47:45;;;;;;;1.90;0.73;;;32.10;1.00;;;;;;5100551;28;20040;-74
2022/06/22 12:50:36;;;;;;;0.35;0.28;;;33.40;1.00;;;;;;5101197;28;20052;-73
2022/06/22 12:53:27;;;;;;;0.10;0.10;;;32.90;1.00;;;;;;5099186;28;20405;-74
2022/06/22 12:56:00;;;;;;;0.30;0.30;;;31.90;1.00;;;;;;5035757;28;20135;-73
2022/06/22 12:58:36;;;;;;;0.85;0.45;;;31.50;1.00;;;;;;5094582;28;20040;-74
2022/06/22 13:01:03;;;;;;;0.45;0.30;;;31.50;1.00;;;;;;5097730;28;20067;-73
2022/06/22 13:03:38;;;;;;;0.98;0.80;;;31.70;1.00;;;;;;5084009;28;20402;-73
2022/06/22 13:06:04;;;;;;;2.10;0.77;;;31.20;1.00;;;;;;5092428;28;20055;-72
2022/06/22 13:08:29;;;;;;;0.20;0.10;;;31.40;1.00;;;;;;5096238;28;20096;-73
2022/06/22 13:11:01;;;;;;;0.00;0.00;;;32.40;1.00;;;;;;5092628;28;20111;-73
2022/06/22 13:14:02;;;;;;;0.20;0.20;;;32.90;1.00;;;;;;5096675;28;20114;-73
2022/06/22 13:16:51;;;;;;;2.03;0.85;;;32.90;1.00;;;;;;5098024;28;20048;-73
2022/06/22 13:19:28;;;;;;;0.13;0.13;;;32.60;1.00;;;;;;5111794;28;20105;-76
2022/06/22 13:22:17;;;;;;;1.63;1.08;;;31.90;1.00;;;;;;5116208;28;20036;-76
2022/06/22 13:24:48;;;;;;;0.15;0.15;;;31.30;1.00;;;;;;5106713;28;20123;-75
2022/06/22 13:27:29;;;;;;;1.70;1.10;;;31.20;1.00;;;;;;5115935;28;20071;-73
2022/06/22 13:30:36;;;;;;;0.57;0.43;;;31.00;1.00;;;;;;5095856;28;20028;-73
2022/06/22 13:33:24;;;;;;;0.40;0.38;;;30.90;1.00;;;;;;5096110;28;20056;-76
2022/06/22 13:36:08;;;;;;;0.15;0.10;;;32.20;1.00;;;;;;5094814;28;20092;-74
2022/06/22 13:38:51;;;;;;;0.85;0.55;;;32.70;1.00;;;;;;5089052;28;20041;-72
2022/06/22 13:41:35;;;;;;;1.50;0.68;;;32.80;1.00;;;;;;5076104;28;20351;-72
2022/06/22 13:44:14;;;;;;;0.47;0.45;;;31.60;1.00;;;;;;5090481;28;20371;-74
2022/06/22 13:47:06;;;;;;;1.23;0.80;;;31.90;1.00;;;;;;5070918;28;20076;-73
2022/06/22 13:50:17;;;;;;;0.30;0.25;;;32.10;1.00;;;;;;5073196;28;20048;-73
2022/06/22 13:52:53;;;;;;;4.05;0.95;;;32.70;1.00;;;;;;5073035;28;20078;-73
2022/06/22 13:55:38;;;;;;;1.52;0.80;;;32.20;1.00;;;;;;5073040;28;20048;-72
2022/06/22 13:58:25;;;;;;;3.30;0.50;;;31.70;1.00;;;;;;5090989;28;20067;-73
2022/06/22 14:01:23;;;;;;;0.38;0.32;;;31.90;1.00;;;;;;5093176;28;20040;-72
2022/06/22 14:04:04;;;;;;;0.10;0.10;;;31.70;1.00;;;;;;5092641;28;20048;-73
2022/06/22 14:06:49;;;;;;;0.25;0.25;;;31.70;1.00;;;;;;5075836;28;20048;-73
2022/06/22 14:09:29;;;;;;;1.85;0.82;;;31.60;1.00;;;;;;5093468;28;20055;-73
2022/06/22 14:12:16;;;;;;;0.05;0.05;;;31.90;1.00;;;;;;5092907;28;20494;-73
2022/06/22 14:15:02;;;;;;;3.72;1.48;;;32.50;1.00;;;;;;5093670;28;20044;-72
2022/06/22 14:18:03;;;;;;;2.67;1.67;;;32.60;1.00;;;;;;5090888;28;20081;-73
2022/06/22 14:20:44;;;;;;;0.68;0.30;;;32.10;1.00;;;;;;5068459;28;20049;-74
2022/06/22 14:23:19;;;;;;;0.38;0.32;;;32.00;1.00;;;;;;5091994;28;20419;-72
2022/06/22 14:26:02;;;;;;;0.77;0.40;;;32.00;1.00;;;;;;5092768;28;20435;-72